sensor_id;sensor_type;location;lat;lon;timestamp;pressure;altitude;pressure_sealevel;temperature;humidity
26807;BME280;14380;49.910;6.792;2022-12-07T00:01:46;99012.53;;;3.88;100.00
26807;BME280;14380;49.910;6.792;2022-12-07T00:04:14;99012.44;;;3.91;100.00
26807;BME280;14380;49.910;6.792;2022-12-07T00:06:43;99007.25;;;3.90;100.00
26807;BME280;14380;49.910;6.792;2022-12-07T00:09:12;99002.72;;;3.98;100.00
26807;BME280;14380;49.910;6.792;2022-12-07T00:11:38;99000.84;;;3.65;100.00
26807;BME280;14380;49.910;6.792;2022-12-07T00:14:09;98999.19;;;3.61;100.00
26807;BME280;14380;49.910;6.792;2022-12-07T00:16:36;98999.88;;;3.71;100.00
26807;BME280;14380;49.910;6.792;2022-12-07T00:19:04;99001.19;;;3.89;100.00
26807;BME280;14380;49.910;6.792;2022-12-07T00:21:32;98993.59;;;3.78;100.00
26807;BME280;14380;49.910;6.792;2022-12-07T00:23:59;98995.22;;;3.82;100.00
26807;BME280;14380;49.910;6.792;2022-12-07T00:26:28;98997.00;;;3.82;100.00
26807;BME280;14380;49.910;6.792;2022-12-07T00:28:56;98988.91;;;3.93;100.00
26807;BME280;14380;49.910;6.792;2022-12-07T00:31:27;98991.44;;;3.96;100.00
26807;BME280;14380;49.910;6.792;2022-12-07T00:33:55;98989.97;;;3.84;100.00
26807;BME280;14380;49.910;6.792;2022-12-07T00:36:23;98988.16;;;3.87;100.00
26807;BME280;14380;49.910;6.792;2022-12-07T00:38:50;98984.16;;;3.72;100.00
26807;BME280;14380;49.910;6.792;2022-12-07T00:41:18;98980.78;;;3.69;100.00
26807;BME280;14380;49.910;6.792;2022-12-07T00:43:47;98971.50;;;3.92;100.00
26807;BME280;14380;49.910;6.792;2022-12-07T00:46:14;98978.38;;;3.96;100.00
26807;BME280;14380;49.910;6.792;2022-12-07T00:48:43;98967.25;;;3.87;100.00
26807;BME280;14380;49.910;6.792;2022-12-07T00:51:11;98973.34;;;3.88;100.00
26807;BME280;14380;49.910;6.792;2022-12-07T00:53:38;98967.59;;;3.74;100.00
26807;BME280;14380;49.910;6.792;2022-12-07T00:56:06;98966.47;;;3.84;100.00
26807;BME280;14380;49.910;6.792;2022-12-07T00:58:32;98972.66;;;3.80;100.00
26807;BME280;14380;49.910;6.792;2022-12-07T01:01:00;98975.28;;;3.80;100.00
26807;BME280;14380;49.910;6.792;2022-12-07T01:03:27;98968.47;;;3.74;100.00
26807;BME280;14380;49.910;6.792;2022-12-07T01:05:56;98964.97;;;3.74;100.00
26807;BME280;14380;49.910;6.792;2022-12-07T01:08:23;98964.97;;;3.75;100.00
26807;BME280;14380;49.910;6.792;2022-12-07T01:10:57;98962.03;;;3.87;100.00
26807;BME280;14380;49.910;6.792;2022-12-07T01:13:24;98962.09;;;3.84;100.00
26807;BME280;14380;49.910;6.792;2022-12-07T01:15:51;98963.47;;;3.63;100.00
26807;BME280;14380;49.910;6.792;2022-12-07T01:18:17;98962.56;;;3.66;100.00
26807;BME280;14380;49.910;6.792;2022-12-07T01:20:44;98966.56;;;3.79;100.00
26807;BME280;14380;49.910;6.792;2022-12-07T01:23:12;98967.22;;;3.89;100.00
26807;BME280;14380;49.910;6.792;2022-12-07T01:25:38;98964.72;;;3.84;100.00
26807;BME280;14380;49.910;6.792;2022-12-07T01:28:05;98966.13;;;3.98;100.00
26807;BME280;14380;49.910;6.792;2022-12-07T01:30:31;98969.72;;;3.94;100.00
26807;BME280;14380;49.910;6.792;2022-12-07T01:32:58;98965.06;;;3.70;100.00
26807;BME280;14380;49.910;6.792;2022-12-07T01:35:25;98961.47;;;3.75;100.00
26807;BME280;14380;49.910;6.792;2022-12-07T01:37:51;98963.78;;;3.87;100.00
26807;BME280;14380;49.910;6.792;2022-12-07T01:40:19;98960.44;;;3.80;100.00
26807;BME280;14380;49.910;6.792;2022-12-07T01:42:46;98972.19;;;3.98;100.00
26807;BME280;14380;49.910;6.792;2022-12-07T01:45:43;98964.13;;;4.09;100.00
26807;BME280;14380;49.910;6.792;2022-12-07T01:48:11;98962.75;;;3.94;100.00
26807;BME280;14380;49.910;6.792;2022-12-07T01:50:40;98964.34;;;4.00;100.00
26807;BME280;14380;49.910;6.792;2022-12-07T01:53:09;98959.72;;;4.10;100.00
26807;BME280;14380;49.910;6.792;2022-12-07T01:55:41;98957.47;;;3.96;100.00
26807;BME280;14380;49.910;6.792;2022-12-07T01:58:11;98953.75;;;4.05;100.00
26807;BME280;14380;49.910;6.792;2022-12-07T02:00:39;98950.81;;;3.82;100.00
26807;BME280;14380;49.910;6.792;2022-12-07T02:03:08;98943.66;;;3.92;100.00
26807;BME280;14380;49.910;6.792;2022-12-07T02:05:38;98938.59;;;3.84;100.00
26807;BME280;14380;49.910;6.792;2022-12-07T02:08:07;98933.34;;;3.86;100.00
26807;BME280;14380;49.910;6.792;2022-12-07T02:10:34;98932.88;;;3.70;100.00
26807;BME280;14380;49.910;6.792;2022-12-07T02:13:06;98935.50;;;3.68;100.00
26807;BME280;14380;49.910;6.792;2022-12-07T02:15:44;98937.13;;;3.74;100.00
26807;BME280;14380;49.910;6.792;2022-12-07T02:18:19;98941.34;;;3.78;100.00
26807;BME280;14380;49.910;6.792;2022-12-07T02:20:56;98939.19;;;3.96;100.00
26807;BME280;14380;49.910;6.792;2022-12-07T02:23:53;98940.91;;;3.97;100.00
26807;BME280;14380;49.910;6.792;2022-12-07T02:26:40;98933.53;;;4.13;100.00
26807;BME280;14380;49.910;6.792;2022-12-07T02:29:18;98931.13;;;4.05;100.00
26807;BME280;14380;49.910;6.792;2022-12-07T02:31:49;98938.22;;;4.00;100.00
26807;BME280;14380;49.910;6.792;2022-12-07T02:34:22;98932.59;;;4.15;100.00
26807;BME280;14380;49.910;6.792;2022-12-07T02:36:57;98933.72;;;4.05;100.00
26807;BME280;14380;49.910;6.792;2022-12-07T02:39:31;98927.47;;;4.12;100.00
26807;BME280;14380;49.910;6.792;2022-12-07T02:42:03;98928.19;;;4.18;100.00
26807;BME280;14380;49.910;6.792;2022-12-07T02:44:36;98926.88;;;4.01;100.00
26807;BME280;14380;49.910;6.792;2022-12-07T02:47:05;98925.16;;;4.00;100.00
26807;BME280;14380;49.910;6.792;2022-12-07T02:49:33;98922.25;;;4.11;100.00
26807;BME280;14380;49.910;6.792;2022-12-07T02:52:01;98933.84;;;4.00;100.00
26807;BME280;14380;49.910;6.792;2022-12-07T02:54:28;98930.06;;;4.12;100.00
26807;BME280;14380;49.910;6.792;2022-12-07T02:57:03;98924.88;;;4.11;100.00
26807;BME280;14380;49.910;6.792;2022-12-07T02:59:44;98929.53;;;4.32;100.00
26807;BME280;14380;49.910;6.792;2022-12-07T03:02:22;98919.69;;;4.09;100.00
26807;BME280;14380;49.910;6.792;2022-12-07T03:04:56;98920.25;;;4.21;100.00
26807;BME280;14380;49.910;6.792;2022-12-07T03:07:35;98920.44;;;4.14;100.00
26807;BME280;14380;49.910;6.792;2022-12-07T03:10:10;98920.63;;;4.07;100.00
26807;BME280;14380;49.910;6.792;2022-12-07T03:12:44;98913.44;;;4.15;100.00
26807;BME280;14380;49.910;6.792;2022-12-07T03:15:16;98910.66;;;4.21;100.00
26807;BME280;14380;49.910;6.792;2022-12-07T03:17:46;98913.13;;;4.27;100.00
26807;BME280;14380;49.910;6.792;2022-12-07T03:20:19;98917.59;;;4.22;100.00
26807;BME280;14380;49.910;6.792;2022-12-07T03:22:47;98911.41;;;4.26;100.00
26807;BME280;14380;49.910;6.792;2022-12-07T03:25:15;98909.97;;;4.14;100.00
26807;BME280;14380;49.910;6.792;2022-12-07T03:27:46;98917.91;;;4.10;100.00
26807;BME280;14380;49.910;6.792;2022-12-07T03:30:20;98915.84;;;4.23;100.00
26807;BME280;14380;49.910;6.792;2022-12-07T03:32:50;98910.44;;;3.97;100.00
26807;BME280;14380;49.910;6.792;2022-12-07T03:35:23;98912.47;;;4.19;100.00
26807;BME280;14380;49.910;6.792;2022-12-07T03:37:54;98908.88;;;4.23;100.00
26807;BME280;14380;49.910;6.792;2022-12-07T03:40:23;98908.47;;;4.39;100.00
26807;BME280;14380;49.910;6.792;2022-12-07T03:42:52;98900.97;;;4.25;100.00
26807;BME280;14380;49.910;6.792;2022-12-07T03:45:26;98900.13;;;4.24;100.00
26807;BME280;14380;49.910;6.792;2022-12-07T03:48:04;98903.59;;;4.25;100.00
26807;BME280;14380;49.910;6.792;2022-12-07T03:50:40;98903.03;;;4.13;100.00
26807;BME280;14380;49.910;6.792;2022-12-07T03:53:11;98898.78;;;4.09;100.00
26807;BME280;14380;49.910;6.792;2022-12-07T03:55:42;98899.41;;;4.19;100.00
26807;BME280;14380;49.910;6.792;2022-12-07T03:58:12;98898.63;;;4.15;100.00
26807;BME280;14380;49.910;6.792;2022-12-07T04:00:42;98891.63;;;4.18;100.00
26807;BME280;14380;49.910;6.792;2022-12-07T04:03:09;98892.97;;;4.31;100.00
26807;BME280;14380;49.910;6.792;2022-12-07T04:05:36;98891.34;;;4.27;100.00
26807;BME280;14380;49.910;6.792;2022-12-07T04:08:03;98895.41;;;4.37;100.00
26807;BME280;14380;49.910;6.792;2022-12-07T04:10:42;98895.19;;;4.13;100.00
26807;BME280;14380;49.910;6.792;2022-12-07T04:13:09;98892.16;;;4.29;100.00
26807;BME280;14380;49.910;6.792;2022-12-07T04:15:35;98891.09;;;4.36;100.00
26807;BME280;14380;49.910;6.792;2022-12-07T04:18:03;98895.47;;;4.36;100.00
26807;BME280;14380;49.910;6.792;2022-12-07T04:20:30;98894.97;;;4.21;100.00
26807;BME280;14380;49.910;6.792;2022-12-07T04:22:56;98892.81;;;4.37;100.00
26807;BME280;14380;49.910;6.792;2022-12-07T04:25:23;98892.97;;;4.31;100.00
26807;BME280;14380;49.910;6.792;2022-12-07T04:27:49;98895.59;;;4.31;100.00
26807;BME280;14380;49.910;6.792;2022-12-07T04:30:16;98897.22;;;4.35;100.00
26807;BME280;14380;49.910;6.792;2022-12-07T04:32:42;98900.63;;;4.39;100.00
26807;BME280;14380;49.910;6.792;2022-12-07T04:35:10;98900.56;;;4.40;100.00
26807;BME280;14380;49.910;6.792;2022-12-07T04:37:36;98897.00;;;4.43;100.00
26807;BME280;14380;49.910;6.792;2022-12-07T04:40:06;98896.31;;;4.36;100.00
26807;BME280;14380;49.910;6.792;2022-12-07T04:42:33;98891.69;;;4.46;100.00
26807;BME280;14380;49.910;6.792;2022-12-07T04:45:00;98886.50;;;4.44;100.00
26807;BME280;14380;49.910;6.792;2022-12-07T04:47:26;98892.63;;;4.43;100.00
26807;BME280;14380;49.910;6.792;2022-12-07T04:49:53;98892.31;;;4.54;100.00
26807;BME280;14380;49.910;6.792;2022-12-07T04:52:21;98888.22;;;4.45;100.00
26807;BME280;14380;49.910;6.792;2022-12-07T04:54:47;98881.94;;;4.51;100.00
26807;BME280;14380;49.910;6.792;2022-12-07T04:57:14;98886.34;;;4.51;100.00
26807;BME280;14380;49.910;6.792;2022-12-07T04:59:40;98888.06;;;4.52;100.00
26807;BME280;14380;49.910;6.792;2022-12-07T05:02:07;98883.75;;;4.49;100.00
26807;BME280;14380;49.910;6.792;2022-12-07T05:04:33;98889.25;;;4.40;100.00
26807;BME280;14380;49.910;6.792;2022-12-07T05:07:00;98874.34;;;4.73;100.00
26807;BME280;14380;49.910;6.792;2022-12-07T05:09:27;98878.41;;;4.54;100.00
26807;BME280;14380;49.910;6.792;2022-12-07T05:11:54;98880.78;;;4.61;100.00
26807;BME280;14380;49.910;6.792;2022-12-07T05:14:21;98879.25;;;4.54;100.00
26807;BME280;14380;49.910;6.792;2022-12-07T05:16:50;98880.84;;;4.60;100.00
26807;BME280;14380;49.910;6.792;2022-12-07T05:19:17;98882.66;;;4.58;100.00
26807;BME280;14380;49.910;6.792;2022-12-07T05:21:44;98883.88;;;4.44;100.00
26807;BME280;14380;49.910;6.792;2022-12-07T05:24:13;98886.09;;;4.60;100.00
26807;BME280;14380;49.910;6.792;2022-12-07T05:26:41;98886.56;;;4.73;100.00
26807;BME280;14380;49.910;6.792;2022-12-07T05:29:11;98885.25;;;4.58;100.00
26807;BME280;14380;49.910;6.792;2022-12-07T05:31:38;98882.81;;;4.52;100.00
26807;BME280;14380;49.910;6.792;2022-12-07T05:34:04;98884.44;;;4.56;100.00
26807;BME280;14380;49.910;6.792;2022-12-07T05:36:31;98889.13;;;4.74;100.00
26807;BME280;14380;49.910;6.792;2022-12-07T05:38:57;98884.47;;;4.54;100.00
26807;BME280;14380;49.910;6.792;2022-12-07T05:41:24;98883.50;;;4.58;100.00
26807;BME280;14380;49.910;6.792;2022-12-07T05:44:24;98885.25;;;4.58;100.00
26807;BME280;14380;49.910;6.792;2022-12-07T05:46:50;98884.16;;;4.65;100.00
26807;BME280;14380;49.910;6.792;2022-12-07T05:49:17;98875.91;;;4.49;100.00
26807;BME280;14380;49.910;6.792;2022-12-07T05:51:44;98883.50;;;4.58;100.00
26807;BME280;14380;49.910;6.792;2022-12-07T05:54:10;98879.25;;;4.54;100.00
26807;BME280;14380;49.910;6.792;2022-12-07T05:56:37;98885.03;;;4.34;100.00
26807;BME280;14380;49.910;6.792;2022-12-07T05:59:03;98877.38;;;4.59;100.00
26807;BME280;14380;49.910;6.792;2022-12-07T06:01:45;98882.19;;;4.43;100.00
26807;BME280;14380;49.910;6.792;2022-12-07T06:04:11;98882.03;;;4.48;100.00
26807;BME280;14380;49.910;6.792;2022-12-07T06:06:38;98877.78;;;4.44;100.00
26807;BME280;14380;49.910;6.792;2022-12-07T06:09:04;98880.03;;;4.58;100.00
26807;BME280;14380;49.910;6.792;2022-12-07T06:11:31;98872.44;;;4.49;100.00
26807;BME280;14380;49.910;6.792;2022-12-07T06:14:15;98881.50;;;4.37;100.00
26807;BME280;14380;49.910;6.792;2022-12-07T06:16:42;98878.91;;;4.35;100.00
26807;BME280;14380;49.910;6.792;2022-12-07T06:19:10;98880.53;;;4.41;100.00
26807;BME280;14380;49.910;6.792;2022-12-07T06:21:36;98878.91;;;4.35;100.00
26807;BME280;14380;49.910;6.792;2022-12-07T06:24:03;98882.34;;;4.37;100.00
26807;BME280;14380;49.910;6.792;2022-12-07T06:26:30;98884.16;;;4.35;100.00
26807;BME280;14380;49.910;6.792;2022-12-07T06:28:56;98878.66;;;4.44;100.00
26807;BME280;14380;49.910;6.792;2022-12-07T06:31:23;98882.94;;;4.47;100.00
26807;BME280;14380;49.910;6.792;2022-12-07T06:33:49;98887.09;;;4.54;100.00
26807;BME280;14380;49.910;6.792;2022-12-07T06:36:17;98887.50;;;4.40;100.00
26807;BME280;14380;49.910;6.792;2022-12-07T06:38:44;98894.03;;;4.24;100.00
26807;BME280;14380;49.910;6.792;2022-12-07T06:41:10;98894.41;;;4.10;100.00
26807;BME280;14380;49.910;6.792;2022-12-07T06:43:37;98892.16;;;4.29;100.00
26807;BME280;14380;49.910;6.792;2022-12-07T06:46:03;98899.16;;;4.28;100.00
26807;BME280;14380;49.910;6.792;2022-12-07T06:48:30;98897.03;;;4.10;100.00
26807;BME280;14380;49.910;6.792;2022-12-07T06:50:56;98897.44;;;4.27;100.00
26807;BME280;14380;49.910;6.792;2022-12-07T06:53:24;98901.47;;;4.39;100.00
26807;BME280;14380;49.910;6.792;2022-12-07T06:55:51;98895.28;;;4.10;100.00
26807;BME280;14380;49.910;6.792;2022-12-07T06:58:18;98894.69;;;4.32;100.00
26807;BME280;14380;49.910;6.792;2022-12-07T07:00:45;98895.34;;;4.07;100.00
26807;BME280;14380;49.910;6.792;2022-12-07T07:03:11;98892.22;;;4.26;100.00
26807;BME280;14380;49.910;6.792;2022-12-07T07:05:38;98895.81;;;4.22;100.00
26807;BME280;14380;49.910;6.792;2022-12-07T07:08:04;98897.59;;;4.21;100.00
26807;BME280;14380;49.910;6.792;2022-12-07T07:10:32;98900.06;;;4.26;100.00
26807;BME280;14380;49.910;6.792;2022-12-07T07:12:59;98902.53;;;3.99;100.00
26807;BME280;14380;49.910;6.792;2022-12-07T07:15:25;98900.28;;;3.85;100.00
26807;BME280;14380;49.910;6.792;2022-12-07T07:17:52;98895.38;;;4.06;100.00
26807;BME280;14380;49.910;6.792;2022-12-07T07:20:18;98900.66;;;4.04;100.00
26807;BME280;14380;49.910;6.792;2022-12-07T07:22:45;98894.13;;;3.87;100.00
26807;BME280;14380;49.910;6.792;2022-12-07T07:25:12;98895.56;;;3.65;100.00
26807;BME280;14380;49.910;6.792;2022-12-07T07:27:40;98897.16;;;3.70;100.00
26807;BME280;14380;49.910;6.792;2022-12-07T07:30:08;98901.25;;;3.81;100.00
26807;BME280;14380;49.910;6.792;2022-12-07T07:32:34;98900.72;;;3.68;100.00
26807;BME280;14380;49.910;6.792;2022-12-07T07:35:01;98904.59;;;3.51;100.00
26807;BME280;14380;49.910;6.792;2022-12-07T07:37:27;98908.72;;;3.60;100.00
26807;BME280;14380;49.910;6.792;2022-12-07T07:39:54;98907.97;;;3.55;100.00
26807;BME280;14380;49.910;6.792;2022-12-07T07:42:20;98919.56;;;3.43;100.00
26807;BME280;14380;49.910;6.792;2022-12-07T07:44:48;98921.34;;;3.41;100.00
26807;BME280;14380;49.910;6.792;2022-12-07T07:47:15;98925.31;;;3.57;100.00
26807;BME280;14380;49.910;6.792;2022-12-07T07:49:41;98928.56;;;3.67;100.00
26807;BME280;14380;49.910;6.792;2022-12-07T07:52:08;98927.97;;;3.56;100.00
26807;BME280;14380;49.910;6.792;2022-12-07T07:54:35;98933.97;;;3.60;100.00
26807;BME280;14380;49.910;6.792;2022-12-07T07:57:01;98930.41;;;3.64;100.00
26807;BME280;14380;49.910;6.792;2022-12-07T07:59:28;98938.25;;;3.62;100.00
26807;BME280;14380;49.910;6.792;2022-12-07T08:01:55;98938.31;;;3.59;100.00
26807;BME280;14380;49.910;6.792;2022-12-07T08:04:22;98942.63;;;3.62;100.00
26807;BME280;14380;49.910;6.792;2022-12-07T08:06:48;98947.78;;;3.65;100.00
26807;BME280;14380;49.910;6.792;2022-12-07T08:09:15;98935.44;;;3.71;100.00
26807;BME280;14380;49.910;6.792;2022-12-07T08:11:41;98934.50;;;3.74;100.00
26807;BME280;14380;49.910;6.792;2022-12-07T08:14:09;98948.34;;;3.78;100.00
26807;BME280;14380;49.910;6.792;2022-12-07T08:16:37;98947.84;;;3.98;100.00
26807;BME280;14380;49.910;6.792;2022-12-07T08:19:05;98947.78;;;3.65;100.00
26807;BME280;14380;49.910;6.792;2022-12-07T08:21:32;98944.91;;;3.76;100.00
26807;BME280;14380;49.910;6.792;2022-12-07T08:23:58;98944.44;;;3.60;100.00
26807;BME280;14380;49.910;6.792;2022-12-07T08:26:24;98945.72;;;3.78;100.00
26807;BME280;14380;49.910;6.792;2022-12-07T08:28:52;98947.31;;;3.85;100.00
26807;BME280;14380;49.910;6.792;2022-12-07T08:31:19;98946.13;;;3.97;100.00
26807;BME280;14380;49.910;6.792;2022-12-07T08:33:47;98940.44;;;4.15;100.00
26807;BME280;14380;49.910;6.792;2022-12-07T08:36:16;98944.56;;;4.24;100.00
26807;BME280;14380;49.910;6.792;2022-12-07T08:38:43;98943.13;;;4.45;100.00
26807;BME280;14380;49.910;6.792;2022-12-07T08:41:09;98942.66;;;4.63;100.00
26807;BME280;14380;49.910;6.792;2022-12-07T08:43:36;98950.41;;;4.66;100.00
26807;BME280;14380;49.910;6.792;2022-12-07T08:46:07;98941.25;;;4.82;100.00
26807;BME280;14380;49.910;6.792;2022-12-07T08:48:37;98945.94;;;4.69;100.00
26807;BME280;14380;49.910;6.792;2022-12-07T08:51:05;98942.66;;;4.63;100.00
26807;BME280;14380;49.910;6.792;2022-12-07T08:53:33;98936.94;;;4.80;100.00
26807;BME280;14380;49.910;6.792;2022-12-07T08:56:01;98938.19;;;4.66;100.00
26807;BME280;14380;49.910;6.792;2022-12-07T08:58:28;98930.28;;;4.99;100.00
26807;BME280;14380;49.910;6.792;2022-12-07T09:00:54;98930.00;;;4.79;100.00
26807;BME280;14380;49.910;6.792;2022-12-07T09:03:21;98930.78;;;4.82;100.00
26807;BME280;14380;49.910;6.792;2022-12-07T09:05:47;98925.03;;;4.99;100.00
26807;BME280;14380;49.910;6.792;2022-12-07T09:08:14;98917.09;;;5.02;100.00
26807;BME280;14380;49.910;6.792;2022-12-07T09:10:42;98929.97;;;5.09;100.00
26807;BME280;14380;49.910;6.792;2022-12-07T09:13:08;98931.28;;;4.95;100.00
26807;BME280;14380;49.910;6.792;2022-12-07T09:15:35;98927.75;;;4.96;100.00
26807;BME280;14380;49.910;6.792;2022-12-07T09:18:01;98931.91;;;5.03;100.00
26807;BME280;14380;49.910;6.792;2022-12-07T09:20:28;98945.06;;;5.00;100.00
26807;BME280;14380;49.910;6.792;2022-12-07T09:22:54;98939.06;;;4.65;100.00
26807;BME280;14380;49.910;6.792;2022-12-07T09:25:21;98937.19;;;4.70;100.00
26807;BME280;14380;49.910;6.792;2022-12-07T09:27:55;98935.28;;;4.77;100.00
26807;BME280;14380;49.910;6.792;2022-12-07T09:30:21;98936.50;;;4.95;100.00
26807;BME280;14380;49.910;6.792;2022-12-07T09:32:48;98946.66;;;4.74;100.00
26807;BME280;14380;49.910;6.792;2022-12-07T09:35:14;98941.69;;;4.65;100.00
26807;BME280;14380;49.910;6.792;2022-12-07T09:37:41;98947.03;;;4.62;100.00
26807;BME280;14380;49.910;6.792;2022-12-07T09:40:08;98937.50;;;4.59;100.00
26807;BME280;14380;49.910;6.792;2022-12-07T09:42:37;98935.78;;;4.58;100.00
26807;BME280;14380;49.910;6.792;2022-12-07T09:45:10;98938.53;;;4.54;100.00
26807;BME280;14380;49.910;6.792;2022-12-07T09:47:38;98937.84;;;4.47;100.00
26807;BME280;14380;49.910;6.792;2022-12-07T09:50:07;98931.88;;;4.42;100.00
26807;BME280;14380;49.910;6.792;2022-12-07T09:52:37;98927.47;;;4.44;100.00
26807;BME280;14380;49.910;6.792;2022-12-07T09:55:10;98923.94;;;4.45;100.00
26807;BME280;14380;49.910;6.792;2022-12-07T09:57:37;98918.44;;;4.86;100.00
26807;BME280;14380;49.910;6.792;2022-12-07T10:00:10;98932.03;;;4.69;100.00
26807;BME280;14380;49.910;6.792;2022-12-07T10:02:39;98918.16;;;5.25;100.00
26807;BME280;14380;49.910;6.792;2022-12-07T10:05:11;98910.19;;;5.28;100.00
26807;BME280;14380;49.910;6.792;2022-12-07T10:07:39;98907.13;;;5.42;100.00
26807;BME280;14380;49.910;6.792;2022-12-07T10:10:13;98912.34;;;5.71;100.00
26807;BME280;14380;49.910;6.792;2022-12-07T10:12:56;98906.94;;;5.75;100.00
26807;BME280;14380;49.910;6.792;2022-12-07T10:15:41;98906.19;;;5.72;100.00
26807;BME280;14380;49.910;6.792;2022-12-07T10:18:17;98903.91;;;5.88;100.00
26807;BME280;14380;49.910;6.792;2022-12-07T10:20:45;98895.75;;;5.97;100.00
26807;BME280;14380;49.910;6.792;2022-12-07T10:23:14;98894.50;;;5.55;100.00
26807;BME280;14380;49.910;6.792;2022-12-07T10:25:41;98893.22;;;5.42;100.00
26807;BME280;14380;49.910;6.792;2022-12-07T10:28:16;98896.72;;;5.94;100.00
26807;BME280;14380;49.910;6.792;2022-12-07T10:30:53;98894.28;;;6.15;100.00
26807;BME280;14380;49.910;6.792;2022-12-07T10:33:30;98889.44;;;6.04;100.00
26807;BME280;14380;49.910;6.792;2022-12-07T10:35:58;98890.38;;;6.02;100.00
26807;BME280;14380;49.910;6.792;2022-12-07T10:38:27;98886.50;;;6.14;100.00
26807;BME280;14380;49.910;6.792;2022-12-07T10:41:06;98892.59;;;5.60;100.00
26807;BME280;14380;49.910;6.792;2022-12-07T10:43:33;98882.38;;;6.06;100.00
26807;BME280;14380;49.910;6.792;2022-12-07T10:49:31;98880.53;;;5.81;100.00
26807;BME280;14380;49.910;6.792;2022-12-07T10:52:07;98876.66;;;5.93;100.00
26807;BME280;14380;49.910;6.792;2022-12-07T10:54:41;98875.66;;;6.23;100.00
26807;BME280;14380;49.910;6.792;2022-12-07T10:57:21;98878.25;;;6.24;100.00
26807;BME280;14380;49.910;6.792;2022-12-07T11:00:04;98875.44;;;6.29;100.00
26807;BME280;14380;49.910;6.792;2022-12-07T11:02:57;98859.84;;;6.01;100.00
26807;BME280;14380;49.910;6.792;2022-12-07T11:05:36;98865.94;;;6.00;100.00
26807;BME280;14380;49.910;6.792;2022-12-07T11:08:17;98865.78;;;6.06;100.00
26807;BME280;14380;49.910;6.792;2022-12-07T11:10:50;98862.41;;;6.02;100.00
26807;BME280;14380;49.910;6.792;2022-12-07T11:13:25;98863.84;;;6.11;100.00
26807;BME280;14380;49.910;6.792;2022-12-07T11:18:52;98839.75;;;6.25;100.00
26807;BME280;14380;49.910;6.792;2022-12-07T11:21:27;98841.31;;;6.31;100.00
26807;BME280;14380;49.910;6.792;2022-12-07T11:24:01;98839.13;;;6.42;100.00
26807;BME280;14380;49.910;6.792;2022-12-07T11:26:42;98836.16;;;6.51;100.00
26807;BME280;14380;49.910;6.792;2022-12-07T11:29:25;98837.03;;;6.52;100.00
26807;BME280;14380;49.910;6.792;2022-12-07T11:32:04;98832.19;;;6.41;100.00
26807;BME280;14380;49.910;6.792;2022-12-07T11:34:47;98828.97;;;6.80;100.00
26807;BME280;14380;49.910;6.792;2022-12-07T11:37:19;98834.84;;;6.63;100.00
26807;BME280;14380;49.910;6.792;2022-12-07T11:39:50;98826.63;;;6.73;100.00
26807;BME280;14380;49.910;6.792;2022-12-07T11:42:21;98829.69;;;6.84;100.00
26807;BME280;14380;49.910;6.792;2022-12-07T11:44:53;98828.16;;;6.56;100.00
26807;BME280;14380;49.910;6.792;2022-12-07T11:47:27;98820.22;;;6.34;100.00
26807;BME280;14380;49.910;6.792;2022-12-07T11:50:05;98818.03;;;6.45;100.00
26807;BME280;14380;49.910;6.792;2022-12-07T11:52:43;98810.78;;;6.76;100.00
26807;BME280;14380;49.910;6.792;2022-12-07T11:55:18;98805.25;;;7.06;100.00
26807;BME280;14380;49.910;6.792;2022-12-07T11:57:50;98806.28;;;7.02;100.00
26807;BME280;14380;49.910;6.792;2022-12-07T12:00:19;98810.97;;;7.16;100.00
26807;BME280;14380;49.910;6.792;2022-12-07T12:02:49;98809.19;;;7.16;100.00
26807;BME280;14380;49.910;6.792;2022-12-07T12:05:21;98804.19;;;6.88;100.00
26807;BME280;14380;49.910;6.792;2022-12-07T12:07:53;98802.31;;;7.13;100.00
26807;BME280;14380;49.910;6.792;2022-12-07T12:10:26;98803.13;;;7.14;100.00
26807;BME280;14380;49.910;6.792;2022-12-07T12:13:27;98798.81;;;7.13;100.00
26807;BME280;14380;49.910;6.792;2022-12-07T12:16:07;98795.28;;;6.92;100.00
26807;BME280;14380;49.910;6.792;2022-12-07T12:18:50;98794.44;;;6.91;100.00
26807;BME280;14380;49.910;6.792;2022-12-07T12:21:23;98789.31;;;6.88;100.00
26807;BME280;14380;49.910;6.792;2022-12-07T12:23:56;98788.44;;;6.88;100.00
26807;BME280;14380;49.910;6.792;2022-12-07T12:26:26;98788.06;;;6.97;100.00
26807;BME280;14380;49.910;6.792;2022-12-07T12:28:56;98784.13;;;7.29;100.00
26807;BME280;14380;49.910;6.792;2022-12-07T12:31:36;98786.19;;;7.23;100.00
26807;BME280;14380;49.910;6.792;2022-12-07T12:34:31;98787.94;;;7.22;100.00
26807;BME280;14380;49.910;6.792;2022-12-07T12:36:59;98774.69;;;7.25;100.00
26807;BME280;14380;49.910;6.792;2022-12-07T12:39:26;98781.22;;;7.15;100.00
26807;BME280;14380;49.910;6.792;2022-12-07T12:41:57;98770.13;;;6.86;100.00
26807;BME280;14380;49.910;6.792;2022-12-07T12:45:04;98766.00;;;6.80;100.00
26807;BME280;14380;49.910;6.792;2022-12-07T12:47:55;98771.78;;;6.89;100.00
26807;BME280;14380;49.910;6.792;2022-12-07T12:50:31;98769.03;;;6.92;100.00
26807;BME280;14380;49.910;6.792;2022-12-07T12:53:11;98765.41;;;7.17;100.00
26807;BME280;14380;49.910;6.792;2022-12-07T12:56:03;98761.34;;;6.87;100.00
26807;BME280;14380;49.910;6.792;2022-12-07T12:58:41;98760.63;;;6.83;100.00
26807;BME280;14380;49.910;6.792;2022-12-07T13:01:40;98762.19;;;6.88;100.00
26807;BME280;14380;49.910;6.792;2022-12-07T13:07:49;98757.41;;;7.20;100.00
26807;BME280;14380;49.910;6.792;2022-12-07T13:10:33;98751.25;;;7.21;100.00
26807;BME280;14380;49.910;6.792;2022-12-07T13:13:03;98748.63;;;7.21;98.45
26807;BME280;14380;49.910;6.792;2022-12-07T13:15:33;98751.66;;;6.89;98.00
26807;BME280;14380;49.910;6.792;2022-12-07T13:18:03;98739.81;;;6.79;99.10
26807;BME280;14380;49.910;6.792;2022-12-07T13:20:51;98735.00;;;6.68;99.75
26807;BME280;14380;49.910;6.792;2022-12-07T13:23:32;98737.13;;;6.80;98.85
26807;BME280;14380;49.910;6.792;2022-12-07T13:26:11;98741.59;;;6.56;100.00
26807;BME280;14380;49.910;6.792;2022-12-07T13:28:41;98740.22;;;6.90;100.00